< < Back
Terminal Aerodrome Forecast


Current Version              Previous Versions:   1  2  3  4  5  6  7  8  9  

Terminal Aerodrome Forecast

780
FTUS44 KBMX 241700
TAFBHM
TAF
KBHM 241721Z 2418/2518 35007KT P6SM SKC
     FM250100 00000KT P6SM SKC=



Latest METAR

356
SAUS70 KWBC 251300 RRK
MTRBHM
METAR KBHM 251253Z 00000KT 10SM CLR 08/06 A3014 RMK AO2 SLP203
T00830061


USA.gov is the U.S. government's official web portal to all federal, state and local government web resources and services.